createdAt,value
2023-05-14T05:04:00.317Z,99.90
2023-05-14T05:14:08.172Z,99.90
2023-05-14T05:19:13.180Z,99.90
2023-05-14T05:29:20.666Z,99.90
2023-05-14T05:34:25.592Z,99.90
2023-05-14T05:39:34.654Z,99.90
2023-05-14T05:44:38.256Z,99.90
2023-05-14T05:49:43.201Z,99.90
2023-05-14T06:04:55.881Z,99.90
2023-05-14T06:15:03.605Z,99.90
2023-05-14T06:20:09.971Z,99.90
2023-05-14T06:35:22.829Z,99.90
2023-05-14T06:45:33.102Z,99.90
2023-05-14T06:50:38.326Z,99.90
2023-05-14T07:05:51.909Z,99.90
2023-05-14T07:10:56.289Z,99.90
2023-05-14T07:21:06.589Z,99.90
2023-05-14T07:26:10.210Z,99.90
2023-05-14T07:36:19.196Z,99.90
2023-05-14T07:41:22.792Z,99.90
2023-05-14T07:46:26.801Z,99.60
2023-05-14T07:51:33.458Z,99.70
2023-05-14T07:56:37.053Z,99.40
2023-05-14T08:01:40.689Z,99.40
2023-05-14T08:06:45.839Z,99.30
2023-05-14T08:11:49.395Z,99.20
2023-05-14T08:16:53.097Z,99.20
2023-05-14T08:21:58.099Z,99.20
2023-05-14T08:27:02.374Z,99.00
2023-05-14T08:32:19.298Z,98.90
2023-05-14T08:37:28.048Z,98.80
2023-05-14T08:42:32.798Z,98.30
2023-05-14T08:47:36.799Z,98.10
2023-05-14T08:52:41.871Z,97.80
2023-05-14T08:57:46.126Z,97.70
2023-05-14T09:02:50.428Z,97.50
2023-05-14T09:07:55.388Z,97.30
2023-05-14T09:12:59.049Z,97.40
2023-05-14T09:18:02.697Z,96.60
2023-05-14T09:23:07.688Z,95.40
2023-05-14T09:28:11.304Z,94.30
2023-05-14T09:33:28.290Z,93.50
2023-05-14T09:38:33.871Z,92.20
2023-05-14T09:43:37.499Z,90.20
2023-05-14T09:48:41.121Z,89.00
2023-05-14T09:53:46.534Z,85.30
2023-05-14T09:58:50.599Z,81.80
2023-05-14T10:03:55.866Z,79.10
2023-05-14T10:09:04.110Z,75.90
2023-05-14T10:14:10.089Z,73.70
2023-05-14T10:19:16.707Z,72.90
2023-05-14T10:24:22.223Z,73.30
2023-05-14T10:29:34.511Z,73.90
2023-05-14T10:34:41.099Z,73.50
2023-05-14T10:39:48.324Z,72.10
2023-05-14T10:44:55.536Z,70.40
2023-05-14T10:50:00.564Z,70.10
2023-05-14T10:55:08.201Z,68.80
2023-05-14T11:00:14.213Z,67.40
2023-05-14T11:05:18.278Z,67.00
2023-05-14T11:10:23.907Z,66.00
2023-05-14T11:15:29.135Z,65.30
2023-05-14T11:20:33.230Z,64.30
2023-05-14T11:25:38.266Z,63.50
2023-05-14T11:30:41.854Z,62.90
2023-05-14T11:35:46.574Z,62.80
2023-05-14T11:40:55.119Z,61.90
2023-05-14T11:45:58.790Z,61.50
2023-05-14T11:51:02.446Z,61.30
2023-05-14T11:56:09.622Z,60.50
2023-05-14T12:01:15.028Z,59.80
2023-05-14T12:06:20.272Z,59.00
2023-05-14T12:11:25.334Z,59.40
2023-05-14T12:16:32.384Z,58.90
2023-05-14T12:21:36.618Z,58.60
2023-05-14T12:26:41.755Z,57.80
2023-05-14T12:31:49.445Z,58.10
2023-05-14T12:36:53.456Z,58.20
2023-05-14T12:41:58.202Z,57.40
2023-05-14T12:47:01.871Z,57.60
2023-05-14T12:52:25.717Z,58.20
2023-05-14T12:57:32.283Z,57.80
2023-05-14T13:02:42.306Z,57.60
2023-05-14T13:07:46.935Z,56.70
2023-05-14T13:12:52.748Z,55.90
2023-05-14T13:17:56.379Z,55.40
2023-05-14T13:22:59.959Z,56.20
2023-05-14T13:28:05.221Z,56.60
2023-05-14T13:33:08.961Z,56.40
2023-05-14T13:38:12.630Z,56.10
2023-05-14T13:43:17.821Z,56.20
2023-05-14T13:48:21.373Z,55.80
2023-05-14T13:53:26.177Z,55.40
2023-05-14T13:58:31.191Z,55.30
2023-05-14T14:03:34.849Z,55.80
2023-05-14T14:08:38.462Z,56.00
2023-05-14T14:13:45.152Z,56.20
2023-05-14T14:18:50.145Z,56.10
2023-05-14T14:23:53.720Z,56.20
2023-05-14T14:28:58.803Z,56.30
2023-05-14T14:34:02.431Z,56.50
2023-05-14T14:39:06.011Z,56.60
2023-05-14T14:44:11.001Z,57.00
2023-05-14T14:49:14.544Z,57.00
2023-05-14T14:54:18.134Z,57.10
2023-05-14T14:59:23.126Z,57.30
2023-05-14T15:04:26.720Z,57.50
2023-05-14T15:09:30.761Z,57.90
2023-05-14T15:14:35.777Z,58.50
2023-05-14T15:19:39.354Z,58.90
2023-05-14T15:24:42.939Z,59.20
2023-05-14T15:29:47.935Z,59.60
2023-05-14T15:34:51.559Z,59.90
2023-05-14T15:39:55.210Z,60.20
2023-05-14T15:45:00.640Z,60.50
2023-05-14T15:50:04.828Z,60.80
2023-05-14T15:55:09.332Z,61.10
2023-05-14T16:00:15.252Z,61.30
2023-05-14T16:05:19.094Z,61.60
2023-05-14T16:10:23.053Z,61.90
2023-05-14T16:15:29.239Z,61.80
2023-05-14T16:20:32.814Z,62.00
2023-05-14T16:25:36.402Z,62.10
2023-05-14T16:30:41.322Z,62.30
2023-05-14T16:35:45.496Z,62.50
2023-05-14T16:40:49.078Z,62.60
2023-05-14T16:45:54.109Z,62.80
2023-05-14T16:50:59.442Z,63.00
2023-05-14T16:56:03.096Z,63.20
2023-05-14T17:01:09.659Z,63.50
2023-05-14T17:06:13.778Z,63.60
2023-05-14T17:11:17.406Z,63.80
2023-05-14T17:16:22.510Z,64.10
2023-05-14T17:21:26.367Z,64.10
2023-05-14T17:26:29.923Z,64.30
2023-05-14T17:31:35.028Z,64.60
2023-05-14T17:36:38.776Z,64.80
2023-05-14T17:41:42.882Z,64.90
2023-05-14T17:46:49.280Z,65.10
2023-05-14T17:51:52.871Z,65.40
2023-05-14T17:56:56.590Z,65.50
2023-05-14T18:02:01.640Z,65.50
2023-05-14T18:07:06.056Z,65.40
2023-05-14T18:12:09.980Z,65.40
2023-05-14T18:17:15.026Z,65.40
2023-05-14T18:22:20.382Z,65.60
2023-05-14T18:27:24.019Z,66.50
2023-05-14T18:32:28.945Z,66.20
2023-05-14T18:37:32.578Z,66.50
2023-05-14T18:42:36.377Z,66.90
2023-05-14T18:47:41.796Z,67.90
2023-05-14T18:52:45.437Z,67.80
2023-05-14T18:57:49.116Z,68.30
2023-05-14T19:02:54.092Z,68.90
2023-05-14T19:07:58.363Z,69.70
2023-05-14T19:13:02.128Z,70.10
2023-05-14T19:18:07.327Z,70.40
2023-05-14T19:23:10.929Z,70.80
2023-05-14T19:28:14.546Z,71.10
2023-05-14T19:33:19.530Z,71.40
2023-05-14T19:38:23.141Z,71.80
2023-05-14T19:43:28.031Z,71.90
2023-05-14T19:48:33.643Z,72.30
2023-05-14T19:53:37.329Z,72.60
2023-05-14T19:58:40.882Z,72.90
2023-05-14T20:03:45.993Z,72.80
2023-05-14T20:08:51.366Z,73.50
2023-05-14T20:13:54.961Z,74.00
2023-05-14T20:18:59.988Z,74.50
2023-05-14T20:24:03.553Z,75.00
2023-05-14T20:29:07.136Z,75.50
2023-05-14T20:34:12.072Z,76.10
2023-05-14T20:39:16.017Z,76.50
2023-05-14T20:44:20.538Z,77.10
2023-05-14T20:49:25.921Z,77.60
2023-05-14T20:54:29.483Z,78.20
2023-05-14T20:59:33.153Z,78.90
2023-05-14T21:04:38.865Z,79.60
2023-05-14T21:09:43.682Z,80.10
2023-05-14T21:14:47.249Z,80.70
2023-05-14T21:19:52.242Z,80.80
2023-05-14T21:24:56.666Z,81.60
2023-05-14T21:30:00.067Z,82.00
2023-05-14T21:35:05.403Z,81.20
2023-05-14T21:40:12.236Z,81.80
2023-05-14T21:50:21.311Z,82.20
2023-05-14T21:55:25.569Z,83.00
2023-05-14T22:00:29.686Z,83.20
2023-05-14T22:05:34.598Z,83.50
2023-05-14T22:10:38.151Z,83.80
2023-05-14T22:15:41.882Z,84.10
2023-05-14T22:20:47.031Z,84.40
2023-05-14T22:25:50.658Z,84.70
